createdAt,value
2017-09-05T00:02:12.074Z,95962.10
2017-09-05T00:04:38.454Z,95958.55
2017-09-05T00:07:04.815Z,95961.54
2017-09-05T00:09:46.130Z,95964.91
2017-09-05T00:12:18.538Z,95963.63
2017-09-05T00:14:50.774Z,95962.11
2017-09-05T00:17:17.135Z,95964.94
2017-09-05T00:19:44.694Z,95959.52
2017-09-05T00:22:15.101Z,95957.83
2017-09-05T00:24:41.435Z,95956.14
2017-09-05T00:27:07.978Z,95962.11
2017-09-05T00:29:34.343Z,95964.38
2017-09-05T00:32:00.719Z,95968.50
2017-09-05T00:34:27.151Z,95969.25
2017-09-05T00:36:53.450Z,95965.28
2017-09-05T00:39:20.002Z,95967.19
2017-09-05T00:41:46.409Z,95965.66
2017-09-05T00:44:12.747Z,95963.23
2017-09-05T00:46:39.094Z,95968.27
2017-09-05T00:49:05.437Z,95965.09
2017-09-05T00:51:31.867Z,95970.52
2017-09-05T00:53:58.262Z,95972.96
2017-09-05T00:56:24.727Z,95972.77
2017-09-05T00:58:51.138Z,95967.16
2017-09-05T01:01:17.631Z,95966.97
2017-09-05T01:03:44.003Z,95969.97
2017-09-05T01:06:10.387Z,95966.59
2017-09-05T01:08:36.947Z,95962.66
2017-09-05T01:11:03.382Z,95963.03
2017-09-05T01:13:29.827Z,95958.55
2017-09-05T01:15:56.193Z,95959.86
2017-09-05T01:18:22.658Z,95956.11
2017-09-05T01:20:49.150Z,95955.92
2017-09-05T01:23:15.506Z,95958.55
2017-09-05T01:25:42.938Z,95956.11
2017-09-05T01:28:09.352Z,95956.33
2017-09-05T01:30:35.771Z,95959.86
2017-09-05T01:33:02.185Z,95960.42
2017-09-05T01:35:28.664Z,95962.66
2017-09-05T01:37:55.089Z,95968.47
2017-09-05T01:40:21.514Z,95971.31
2017-09-05T01:42:47.838Z,95969.44
2017-09-05T01:45:14.191Z,95973.19
2017-09-05T01:47:40.622Z,95969.46
2017-09-05T01:50:07.061Z,95973.20
2017-09-05T01:52:33.551Z,95964.59
2017-09-05T01:54:59.974Z,95962.53
2017-09-05T01:57:27.314Z,95966.84
2017-09-05T01:59:53.680Z,95963.47
2017-09-05T02:02:20.063Z,95961.57
2017-09-05T02:04:46.403Z,95966.25
2017-09-05T02:07:12.773Z,95967.00
2017-09-05T02:09:39.201Z,95952.59
2017-09-05T02:12:05.515Z,95953.52
2017-09-05T02:14:31.863Z,95959.89
2017-09-05T02:16:58.224Z,95953.70
2017-09-05T02:19:24.694Z,95960.64
2017-09-05T02:21:51.075Z,95957.45
2017-09-05T02:24:17.463Z,95960.08
2017-09-05T02:26:44.822Z,95958.39
2017-09-05T02:29:11.230Z,95954.45
2017-09-05T02:31:37.626Z,95951.65
2017-09-05T02:34:04.020Z,95951.46
2017-09-05T02:36:30.423Z,95945.06
2017-09-05T02:38:56.770Z,95945.06
2017-09-05T02:41:23.263Z,95943.01
2017-09-05T02:43:49.587Z,95936.45
2017-09-05T02:46:15.992Z,95933.27
2017-09-05T02:48:42.417Z,95939.82
2017-09-05T02:51:08.887Z,95935.33
2017-09-05T02:53:35.312Z,95939.64
2017-09-05T02:56:01.754Z,95945.63
2017-09-05T02:58:28.172Z,95943.16
2017-09-05T03:00:54.507Z,95948.02
2017-09-05T03:03:20.873Z,95941.09
2017-09-05T03:05:47.278Z,95941.66
2017-09-05T03:08:13.806Z,95948.40
2017-09-05T03:10:40.195Z,95943.53
2017-09-05T03:13:06.595Z,95950.27
2017-09-05T03:15:33.002Z,95952.88
2017-09-05T03:17:59.381Z,95950.81
2017-09-05T03:20:25.782Z,95946.14
2017-09-05T03:22:52.163Z,95938.62
2017-09-05T03:25:18.586Z,95932.03
2017-09-05T03:27:44.961Z,95932.81
2017-09-05T03:30:11.368Z,95932.59
2017-09-05T03:32:37.915Z,95929.97
2017-09-05T03:35:04.530Z,95929.78
2017-09-05T03:37:30.878Z,95924.55
2017-09-05T03:39:57.218Z,95923.23
2017-09-05T03:42:23.574Z,95917.43
2017-09-05T03:44:49.908Z,95917.80
2017-09-05T03:47:16.263Z,95917.99
2017-09-05T03:49:42.682Z,95915.75
2017-09-05T03:52:09.064Z,95915.94
2017-09-05T03:54:35.484Z,95920.38
2017-09-05T03:57:01.928Z,95914.77
2017-09-05T03:59:28.332Z,95911.22
2017-09-05T04:04:14.163Z,95908.79
2017-09-05T04:06:40.572Z,95911.06
2017-09-05T04:09:12.614Z,95914.77
2017-09-05T04:11:39.280Z,95922.81
2017-09-05T04:14:05.642Z,95928.61
2017-09-05T04:16:31.960Z,95927.66
2017-09-05T04:18:58.506Z,95925.98
2017-09-05T04:21:24.890Z,95926.34
2017-09-05T04:23:51.291Z,95924.09
2017-09-05T04:26:17.791Z,95926.14
2017-09-05T04:28:44.162Z,95930.79
2017-09-05T04:31:10.517Z,95930.40
2017-09-05T04:33:36.935Z,95932.47
2017-09-05T04:36:03.311Z,95937.17
2017-09-05T04:38:29.772Z,95934.94
2017-09-05T04:40:56.170Z,95933.78
2017-09-05T04:43:22.586Z,95938.86
2017-09-05T04:45:48.942Z,95938.64
2017-09-05T04:48:15.386Z,95949.30
2017-09-05T04:50:41.741Z,95951.20
2017-09-05T04:53:09.122Z,95952.85
2017-09-05T04:55:35.497Z,95953.27
2017-09-05T04:58:01.878Z,95954.95
2017-09-05T05:00:28.472Z,95958.31
2017-09-05T05:02:54.816Z,95963.75
2017-09-05T05:05:21.153Z,95968.07
2017-09-05T05:07:47.527Z,95973.50
2017-09-05T05:10:13.971Z,95967.20
2017-09-05T05:12:41.066Z,95966.69
2017-09-05T05:15:07.479Z,95961.12
2017-09-05T05:17:33.871Z,95957.04
2017-09-05T05:20:00.214Z,95966.96
2017-09-05T05:22:26.699Z,95974.64
2017-09-05T05:24:53.063Z,95969.78
2017-09-05T05:27:19.434Z,95973.15
2017-09-05T05:29:45.840Z,95977.11
2017-09-05T05:32:12.190Z,95977.86
2017-09-05T05:34:38.724Z,95982.36
2017-09-05T05:37:05.133Z,95984.26
2017-09-05T05:39:31.704Z,95981.83
2017-09-05T05:41:58.111Z,95985.57
2017-09-05T05:44:24.442Z,95986.69
2017-09-05T05:46:50.769Z,95987.62
2017-09-05T05:49:17.822Z,95984.44
2017-09-05T05:51:44.234Z,95981.28
2017-09-05T05:54:10.687Z,95987.27
2017-09-05T05:56:37.097Z,95984.27
2017-09-05T05:59:03.479Z,95986.72
2017-09-05T06:01:30.578Z,95989.33
2017-09-05T06:03:57.042Z,95994.78
2017-09-05T06:06:23.541Z,96003.41
2017-09-05T06:08:49.919Z,95998.17
2017-09-05T06:11:16.358Z,96001.90
2017-09-05T06:13:42.788Z,96002.27
2017-09-05T06:16:09.120Z,95996.08
2017-09-05T06:18:35.511Z,95996.25
2017-09-05T06:21:01.838Z,95992.50
2017-09-05T06:23:28.243Z,95990.38
2017-09-05T06:25:54.728Z,95989.64
2017-09-05T06:28:21.138Z,95990.00
2017-09-05T06:30:47.589Z,95994.14
2017-09-05T06:33:13.926Z,95992.09
2017-09-05T06:35:40.326Z,95997.57
2017-09-05T06:38:06.700Z,96007.71
2017-09-05T06:40:33.006Z,96004.90
2017-09-05T06:42:59.552Z,96008.09
2017-09-05T06:45:26.023Z,96009.38
2017-09-05T06:47:52.410Z,96010.14
2017-09-05T06:50:18.799Z,96004.33
2017-09-05T06:52:45.264Z,96011.64
2017-09-05T06:55:11.610Z,96012.95
2017-09-05T06:57:39.950Z,96009.95
2017-09-05T07:00:06.539Z,96011.25
2017-09-05T07:02:32.907Z,96010.12
2017-09-05T07:05:01.302Z,96011.64
2017-09-05T07:07:27.708Z,96015.41
2017-09-05T07:09:54.106Z,96018.95
2017-09-05T07:12:21.015Z,96022.30
2017-09-05T07:14:47.415Z,96022.68
2017-09-05T07:17:13.830Z,96023.80
2017-09-05T07:19:40.246Z,96021.74
2017-09-05T07:22:06.698Z,96020.43
2017-09-05T07:24:33.106Z,96019.52
2017-09-05T07:26:59.463Z,96026.08
2017-09-05T07:29:25.770Z,96020.99
2017-09-05T07:31:52.322Z,96024.57
2017-09-05T07:34:18.726Z,96025.90
2017-09-05T07:36:45.130Z,96019.50
2017-09-05T07:39:11.527Z,96018.94
2017-09-05T07:41:37.867Z,96019.12
2017-09-05T07:44:04.226Z,96020.63
2017-09-05T07:46:30.835Z,96016.88
2017-09-05T07:48:57.191Z,96011.66
2017-09-05T07:51:23.518Z,96006.02
2017-09-05T07:53:49.864Z,96013.49
2017-09-05T07:56:16.216Z,96008.38
2017-09-05T07:58:42.570Z,96008.97
2017-09-05T08:01:10.086Z,96010.27
2017-09-05T08:03:36.631Z,96016.03
2017-09-05T08:06:06.648Z,96024.22
2017-09-05T08:08:33.441Z,96024.75
2017-09-05T08:10:59.850Z,96019.69
2017-09-05T08:13:26.203Z,96021.96
2017-09-05T08:15:52.646Z,96016.17
2017-09-05T08:18:19.100Z,96018.59
2017-09-05T08:20:45.510Z,96018.72
2017-09-05T08:23:11.943Z,96011.88
2017-09-05T08:25:38.460Z,96019.97
2017-09-05T08:28:05.006Z,96014.52
2017-09-05T08:30:31.399Z,96017.11
2017-09-05T08:32:57.852Z,96018.16
2017-09-05T08:35:24.171Z,96022.42
2017-09-05T08:37:50.574Z,96021.55
2017-09-05T08:40:17.017Z,96031.45
2017-09-05T08:42:43.459Z,96028.87
2017-09-05T08:45:09.994Z,96025.75
2017-09-05T08:47:36.449Z,96025.20
2017-09-05T08:50:02.895Z,96028.39
2017-09-05T08:52:29.294Z,96024.69
2017-09-05T08:54:55.646Z,96026.95
2017-09-05T08:57:22.123Z,96026.83
2017-09-05T08:59:48.534Z,96022.43
2017-09-05T09:02:20.099Z,96024.02
2017-09-05T09:04:46.506Z,96020.28
2017-09-05T09:07:12.875Z,96017.34
2017-09-05T09:09:39.294Z,96012.02
2017-09-05T09:12:05.821Z,96013.02
2017-09-05T09:14:34.175Z,96005.40
2017-09-05T09:17:00.603Z,96003.33
2017-09-05T09:19:26.991Z,95995.76
2017-09-05T09:21:53.374Z,95999.96
2017-09-05T09:24:19.961Z,95997.70
2017-09-05T09:26:46.303Z,95995.05
2017-09-05T09:29:12.638Z,95999.33
2017-09-05T09:31:40.039Z,95996.77
2017-09-05T09:34:06.463Z,95995.35
2017-09-05T09:36:32.950Z,95999.97
2017-09-05T09:38:59.329Z,95995.15
2017-09-05T09:41:25.629Z,95995.47
2017-09-05T09:43:52.300Z,95997.97
2017-09-05T09:46:18.679Z,95999.59
2017-09-05T09:48:45.123Z,95991.66
2017-09-05T09:51:11.426Z,95990.29
2017-09-05T09:53:37.936Z,95988.27
2017-09-05T09:56:04.250Z,95984.74
2017-09-05T09:58:30.626Z,95992.13
2017-09-05T10:03:34.398Z,95987.86
2017-09-05T10:06:06.147Z,95989.05
2017-09-05T10:08:32.569Z,95982.34
2017-09-05T10:10:59.010Z,95989.67
2017-09-05T10:13:25.332Z,95988.08
2017-09-05T10:15:52.744Z,95988.62
2017-09-05T10:18:19.241Z,95984.05
2017-09-05T10:20:45.677Z,95976.53
2017-09-05T10:23:11.999Z,95975.47
2017-09-05T10:25:38.399Z,95969.94
2017-09-05T10:28:04.786Z,95977.22
2017-09-05T10:30:31.102Z,95967.75
2017-09-05T10:32:57.672Z,95973.20
2017-09-05T10:35:23.990Z,95967.53
2017-09-05T10:37:50.344Z,95966.23
2017-09-05T10:40:16.780Z,95964.38
2017-09-05T10:42:43.110Z,95965.16
2017-09-05T10:45:09.845Z,95961.50
2017-09-05T10:47:42.964Z,95960.22
2017-09-05T10:50:09.609Z,95954.27
2017-09-05T10:52:36.022Z,95953.02
2017-09-05T10:55:03.391Z,95947.70
2017-09-05T10:57:29.778Z,95943.92
2017-09-05T10:59:56.105Z,95941.97
2017-09-05T11:02:22.495Z,95945.17
2017-09-05T11:04:48.861Z,95943.48
2017-09-05T11:07:15.310Z,95943.88
2017-09-05T11:09:41.708Z,95941.49
2017-09-05T11:12:08.073Z,95943.59
2017-09-05T11:14:34.504Z,95938.33
2017-09-05T11:17:00.936Z,95933.21
2017-09-05T11:19:27.431Z,95941.28
2017-09-05T11:21:53.824Z,95937.84
2017-09-05T11:24:20.235Z,95930.56
2017-09-05T11:26:46.885Z,95932.55
2017-09-05T11:29:13.266Z,95926.48
2017-09-05T11:31:39.619Z,95916.94
2017-09-05T11:34:06.082Z,95914.20
2017-09-05T11:36:32.659Z,95917.38
2017-09-05T11:38:59.102Z,95902.59
2017-09-05T11:41:25.533Z,95907.27
2017-09-05T11:43:51.856Z,95911.11
2017-09-05T11:46:18.215Z,95908.08
2017-09-05T11:48:44.584Z,95917.53
2017-09-05T11:51:11.022Z,95905.06
2017-09-05T11:53:37.364Z,95908.88
2017-09-05T11:56:03.795Z,95907.66
2017-09-05T11:58:30.215Z,95902.78
2017-09-05T12:00:56.658Z,95904.70
2017-09-05T12:03:23.097Z,95902.17
2017-09-05T12:05:57.850Z,95901.95
2017-09-05T12:08:25.255Z,95899.98
2017-09-05T12:10:51.592Z,95894.45
2017-09-05T12:13:17.926Z,95897.30
2017-09-05T12:15:44.262Z,95892.34
2017-09-05T12:18:10.655Z,95889.14
2017-09-05T12:20:37.007Z,95886.83
2017-09-05T12:23:03.459Z,95882.61
2017-09-05T12:25:30.039Z,95884.31
2017-09-05T12:27:56.533Z,95885.61
2017-09-05T12:30:23.739Z,95884.55
2017-09-05T12:32:50.259Z,95881.59
2017-09-05T12:35:16.618Z,95873.91
2017-09-05T12:37:43.095Z,95874.61
2017-09-05T12:40:09.472Z,95867.55
2017-09-05T12:42:35.887Z,95858.67
2017-09-05T12:45:02.267Z,95865.68
2017-09-05T12:47:28.710Z,95861.30
2017-09-05T12:49:55.187Z,95861.55
2017-09-05T12:52:21.634Z,95864.80
2017-09-05T12:54:47.990Z,95854.65
2017-09-05T12:57:14.396Z,95856.75
2017-09-05T12:59:40.807Z,95847.73
2017-09-05T13:02:07.131Z,95852.34
2017-09-05T13:04:33.601Z,95848.36
2017-09-05T13:07:00.012Z,95841.93
2017-09-05T13:09:26.536Z,95843.53
2017-09-05T13:11:52.935Z,95845.39
2017-09-05T13:14:19.331Z,95844.05
2017-09-05T13:16:45.716Z,95833.72
2017-09-05T13:19:12.096Z,95831.53
2017-09-05T13:21:38.420Z,95829.68
2017-09-05T13:24:04.875Z,95823.80
2017-09-05T13:26:31.215Z,95823.17
2017-09-05T13:28:57.687Z,95823.56
2017-09-05T13:31:24.131Z,95828.19
2017-09-05T13:33:51.460Z,95823.92
2017-09-05T13:36:17.820Z,95819.09
2017-09-05T13:38:44.250Z,95818.88
2017-09-05T13:41:10.691Z,95813.09
2017-09-05T13:43:37.109Z,95812.16
2017-09-05T13:46:03.459Z,95811.92
2017-09-05T13:48:29.924Z,95808.36
2017-09-05T13:50:56.298Z,95807.80
2017-09-05T13:53:22.629Z,95804.34
2017-09-05T13:55:49.007Z,95802.42
2017-09-05T13:58:15.498Z,95808.63
2017-09-05T14:00:42.007Z,95807.41
2017-09-05T14:03:08.410Z,95807.48
2017-09-05T14:05:40.827Z,95805.28
2017-09-05T14:08:07.571Z,95809.98
2017-09-05T14:10:34.007Z,95807.64
2017-09-05T14:13:00.404Z,95801.29
2017-09-05T14:15:26.753Z,95808.13
2017-09-05T14:17:53.391Z,95799.55
2017-09-05T14:20:19.843Z,95792.55
2017-09-05T14:22:46.293Z,95790.59
2017-09-05T14:25:12.898Z,95787.25
2017-09-05T14:27:39.247Z,95790.05
2017-09-05T14:30:05.711Z,95789.82
2017-09-05T14:32:32.134Z,95795.31
2017-09-05T14:34:58.619Z,95794.98
2017-09-05T14:37:32.435Z,95801.69
2017-09-05T14:39:58.962Z,95794.57
2017-09-05T14:42:25.362Z,95802.92
2017-09-05T14:44:51.706Z,95799.63
2017-09-05T14:47:18.179Z,95800.22
2017-09-05T14:49:45.455Z,95799.52
2017-09-05T14:52:11.835Z,95797.48
2017-09-05T14:54:38.235Z,95792.93
2017-09-05T14:57:04.616Z,95787.70
2017-09-05T14:59:31.135Z,95793.42
2017-09-05T15:01:57.617Z,95798.88
2017-09-05T15:04:24.175Z,95790.88
2017-09-05T15:06:50.591Z,95798.44
2017-09-05T15:09:17.022Z,95797.86
2017-09-05T15:11:43.462Z,95800.23
2017-09-05T15:14:09.899Z,95795.70
2017-09-05T15:16:36.226Z,95795.14
2017-09-05T15:19:10.384Z,95796.25
2017-09-05T15:21:36.979Z,95797.37
2017-09-05T15:24:03.391Z,95790.22
2017-09-05T15:26:29.734Z,95788.02
2017-09-05T15:28:56.111Z,95791.55
2017-09-05T15:31:22.439Z,95799.23
2017-09-05T15:33:48.759Z,95792.38
2017-09-05T15:36:15.115Z,95799.80
2017-09-05T15:38:41.426Z,95794.16
2017-09-05T15:41:07.767Z,95787.41
2017-09-05T15:43:34.121Z,95789.50
2017-09-05T15:46:00.555Z,95799.94
2017-09-05T15:48:27.009Z,95793.23
2017-09-05T15:50:53.644Z,95799.68
2017-09-05T15:53:20.115Z,95795.69
2017-09-05T15:55:46.522Z,95795.43
2017-09-05T15:58:12.992Z,95789.03
2017-09-05T16:00:45.781Z,95791.16
2017-09-05T16:03:12.166Z,95791.02
2017-09-05T16:05:45.080Z,95795.54
2017-09-05T16:08:12.102Z,95790.37
2017-09-05T16:10:38.443Z,95795.28
2017-09-05T16:13:05.072Z,95800.91
2017-09-05T16:15:31.551Z,95795.42
2017-09-05T16:17:57.972Z,95793.62
2017-09-05T16:20:24.295Z,95791.94
2017-09-05T16:22:50.639Z,95794.33
2017-09-05T16:25:17.112Z,95791.19
2017-09-05T16:27:43.475Z,95792.53
2017-09-05T16:30:09.920Z,95792.80
2017-09-05T16:32:36.337Z,95793.24
2017-09-05T16:35:02.771Z,95794.48
2017-09-05T16:37:29.191Z,95791.20
2017-09-05T16:39:55.525Z,95792.47
2017-09-05T16:42:25.251Z,95788.28
2017-09-05T16:44:51.856Z,95795.80
2017-09-05T16:47:18.205Z,95796.89
2017-09-05T16:49:45.583Z,95788.31
2017-09-05T16:52:11.930Z,95786.64
2017-09-05T16:54:38.363Z,95784.61
2017-09-05T16:57:04.697Z,95786.31
2017-09-05T16:59:31.135Z,95787.64
2017-09-05T17:01:57.755Z,95785.49
2017-09-05T17:04:24.115Z,95786.92
2017-09-05T17:06:50.659Z,95782.05
2017-09-05T17:09:17.082Z,95781.16
2017-09-05T17:11:43.507Z,95784.55
2017-09-05T17:14:10.048Z,95780.05
2017-09-05T17:16:36.460Z,95779.18
2017-09-05T17:19:02.851Z,95776.32
2017-09-05T17:21:29.303Z,95778.16
2017-09-05T17:24:01.857Z,95777.77
2017-09-05T17:26:28.317Z,95780.23
2017-09-05T17:28:54.747Z,95785.08
2017-09-05T17:31:21.167Z,95786.59
2017-09-05T17:33:47.555Z,95788.59
2017-09-05T17:36:14.684Z,95795.84
2017-09-05T17:38:41.089Z,95790.91
2017-09-05T17:41:07.430Z,95785.79
2017-09-05T17:43:33.771Z,95799.41
2017-09-05T17:46:00.130Z,95795.61
2017-09-05T17:48:26.563Z,95792.39
2017-09-05T17:50:52.967Z,95801.09
2017-09-05T17:53:19.379Z,95805.89
2017-09-05T17:55:45.771Z,95804.25
2017-09-05T17:58:12.236Z,95814.88
2017-09-05T18:00:38.566Z,95817.09
2017-09-05T18:03:05.032Z,95815.23
2017-09-05T18:05:39.014Z,95820.31
2017-09-05T18:08:05.958Z,95826.27
2017-09-05T18:10:33.087Z,95827.82
2017-09-05T18:12:59.438Z,95829.14
2017-09-05T18:15:25.914Z,95825.56
2017-09-05T18:17:52.313Z,95826.33
2017-09-05T18:20:18.844Z,95831.95
2017-09-05T18:23:00.123Z,95828.54
2017-09-05T18:25:26.587Z,95841.86
2017-09-05T18:27:53.024Z,95845.38
2017-09-05T18:30:19.462Z,95842.24
2017-09-05T18:32:45.888Z,95838.86
2017-09-05T18:35:12.339Z,95843.98
2017-09-05T18:37:38.788Z,95841.03
2017-09-05T18:40:05.205Z,95844.51
2017-09-05T18:42:38.538Z,95840.60
2017-09-05T18:45:10.945Z,95839.98
2017-09-05T18:47:37.770Z,95841.70
2017-09-05T18:50:04.163Z,95845.85
2017-09-05T18:52:32.514Z,95841.13
2017-09-05T18:54:58.930Z,95840.20
2017-09-05T18:57:25.403Z,95843.61
2017-09-05T18:59:51.766Z,95846.42
2017-09-05T19:02:18.234Z,95841.35
2017-09-05T19:04:44.634Z,95842.20
2017-09-05T19:07:11.146Z,95845.55
2017-09-05T19:09:43.744Z,95842.77
2017-09-05T19:12:10.117Z,95847.84
2017-09-05T19:14:36.600Z,95848.16
2017-09-05T19:17:03.131Z,95851.77
2017-09-05T19:19:29.539Z,95848.04
2017-09-05T19:21:55.859Z,95849.61
2017-09-05T19:24:22.200Z,95855.81
2017-09-05T19:26:48.675Z,95850.27
2017-09-05T19:29:15.087Z,95854.87
2017-09-05T19:31:41.491Z,95853.38
2017-09-05T19:34:07.873Z,95852.04
2017-09-05T19:36:34.296Z,95847.64
2017-09-05T19:39:00.721Z,95846.33
2017-09-05T19:44:02.052Z,95846.59
2017-09-05T19:46:28.451Z,95845.59
2017-09-05T19:48:54.814Z,95839.78
2017-09-05T19:51:21.210Z,95843.44
2017-09-05T19:53:47.540Z,95841.25
2017-09-05T19:56:14.032Z,95843.56
2017-09-05T19:58:40.422Z,95844.16
2017-09-05T20:01:07.059Z,95838.52
2017-09-05T20:03:33.450Z,95843.86
2017-09-05T20:05:59.839Z,95848.75
2017-09-05T20:08:27.237Z,95849.38
2017-09-05T20:10:53.642Z,95849.29
2017-09-05T20:13:20.103Z,95855.56
2017-09-05T20:15:46.535Z,95853.86
2017-09-05T20:18:12.995Z,95847.97
2017-09-05T20:20:39.397Z,95854.41
2017-09-05T20:23:05.819Z,95850.43
2017-09-05T20:25:32.366Z,95853.48
2017-09-05T20:27:58.869Z,95856.53
2017-09-05T20:30:25.257Z,95860.75
2017-09-05T20:32:59.294Z,95854.54
2017-09-05T20:35:25.749Z,95860.20
2017-09-05T20:37:53.283Z,95859.17
2017-09-05T20:40:19.744Z,95857.13
2017-09-05T20:42:47.021Z,95858.58
2017-09-05T20:45:13.473Z,95857.45
2017-09-05T20:47:39.859Z,95855.05
2017-09-05T20:50:06.216Z,95856.91
2017-09-05T20:52:32.746Z,95854.61
2017-09-05T20:54:59.382Z,95856.69
2017-09-05T20:57:26.433Z,95855.22
2017-09-05T20:59:53.099Z,95851.20
2017-09-05T21:02:19.698Z,95843.50
2017-09-05T21:04:46.601Z,95847.64
2017-09-05T21:07:13.055Z,95853.88
2017-09-05T21:09:39.808Z,95845.19
2017-09-05T21:12:06.595Z,95841.46
2017-09-05T21:14:32.928Z,95841.68
2017-09-05T21:17:01.365Z,95841.28
2017-09-05T21:19:27.871Z,95843.37
2017-09-05T21:21:54.410Z,95841.27
2017-09-05T21:24:20.830Z,95847.05
2017-09-05T21:26:47.508Z,95843.09
2017-09-05T21:29:14.056Z,95841.15
2017-09-05T21:31:40.818Z,95838.52
2017-09-05T21:34:07.602Z,95830.96
2017-09-05T21:36:34.067Z,95838.89
2017-09-05T21:39:00.490Z,95836.83
2017-09-05T21:41:26.847Z,95840.53
2017-09-05T21:43:53.557Z,95832.67
2017-09-05T21:46:20.406Z,95830.02
2017-09-05T21:48:46.902Z,95829.52
2017-09-05T21:51:13.331Z,95834.73
2017-09-05T21:53:39.921Z,95835.91
2017-09-05T21:56:10.973Z,95821.56
2017-09-05T21:58:44.097Z,95823.08
2017-09-05T22:01:10.819Z,95824.70
2017-09-05T22:03:37.207Z,95825.45
2017-09-05T22:06:03.676Z,95822.47
2017-09-05T22:08:30.743Z,95822.52
2017-09-05T22:10:57.211Z,95823.26
2017-09-05T22:13:23.927Z,95817.87
2017-09-05T22:15:50.469Z,95816.57
2017-09-05T22:18:29.176Z,95812.32
2017-09-05T22:21:02.696Z,95812.34
2017-09-05T22:23:29.134Z,95812.96
2017-09-05T22:26:01.528Z,95811.48
2017-09-05T22:28:34.039Z,95812.08
2017-09-05T22:31:00.391Z,95807.60
2017-09-05T22:33:26.826Z,95806.38
2017-09-05T22:35:53.354Z,95808.11
2017-09-05T22:38:24.195Z,95810.78
2017-09-05T22:40:50.581Z,95803.67
2017-09-05T22:43:17.146Z,95808.55
2017-09-05T22:45:43.611Z,95802.22
2017-09-05T22:48:10.018Z,95798.34
2017-09-05T22:50:36.534Z,95803.61
2017-09-05T22:53:02.912Z,95797.87
2017-09-05T22:55:29.286Z,95795.14
2017-09-05T22:57:55.666Z,95797.61
2017-09-05T23:00:28.191Z,95799.94
2017-09-05T23:02:55.082Z,95797.05
2017-09-05T23:05:21.462Z,95798.16
2017-09-05T23:07:47.867Z,95796.64
2017-09-05T23:10:14.248Z,95796.64
2017-09-05T23:12:40.659Z,95791.33
2017-09-05T23:15:07.019Z,95793.77
2017-09-05T23:17:34.159Z,95792.19
2017-09-05T23:20:00.487Z,95795.70
2017-09-05T23:22:26.834Z,95793.34
2017-09-05T23:24:53.246Z,95787.69
2017-09-05T23:27:19.714Z,95774.57
2017-09-05T23:29:46.170Z,95781.17
2017-09-05T23:32:12.579Z,95784.61
2017-09-05T23:34:39.011Z,95788.40
2017-09-05T23:37:05.339Z,95784.89
2017-09-05T23:39:31.706Z,95780.39
2017-09-05T23:41:58.058Z,95773.80
2017-09-05T23:44:24.477Z,95769.48
2017-09-05T23:46:50.939Z,95770.03
2017-09-05T23:49:17.323Z,95757.62
2017-09-05T23:51:43.697Z,95763.12
2017-09-05T23:54:10.319Z,95760.70
2017-09-05T23:56:36.774Z,95763.69
2017-09-05T23:59:03.215Z,95757.81
